createdAt,value
2023-03-06T00:02:07.933Z,78.72
2023-03-06T00:04:36.496Z,79.44
2023-03-06T00:07:04.386Z,79.09
2023-03-06T00:09:32.357Z,79.06
2023-03-06T00:11:59.987Z,79.94
2023-03-06T00:14:28.480Z,78.97
2023-03-06T00:16:57.616Z,79.26
2023-03-06T00:19:25.549Z,80.22
2023-03-06T00:22:15.099Z,79.89
2023-03-06T00:24:43.354Z,79.39
2023-03-06T00:27:11.301Z,80.25
2023-03-06T00:29:38.923Z,80.00
2023-03-06T00:32:09.379Z,79.85
2023-03-06T00:34:37.012Z,79.54
2023-03-06T00:37:05.324Z,79.89
2023-03-06T00:39:33.857Z,80.32
2023-03-06T00:42:02.284Z,80.36
2023-03-06T00:44:29.874Z,80.48
2023-03-06T00:46:57.666Z,79.72
2023-03-06T00:49:26.607Z,80.65
2023-03-06T00:51:55.244Z,80.76
2023-03-06T00:54:22.887Z,80.96
2023-03-06T00:56:51.149Z,80.99
2023-03-06T00:59:18.872Z,80.92
2023-03-06T01:01:46.746Z,81.44
2023-03-06T01:04:14.793Z,81.57
2023-03-06T01:06:44.553Z,81.04
2023-03-06T01:09:12.198Z,80.73
2023-03-06T01:11:39.881Z,80.63
2023-03-06T01:14:07.599Z,81.31
2023-03-06T01:16:35.430Z,80.77
2023-03-06T01:19:03.098Z,80.31
2023-03-06T01:21:31.151Z,81.05
2023-03-06T01:24:00.958Z,80.74
2023-03-06T01:26:29.138Z,80.69
2023-03-06T01:28:57.388Z,80.41
2023-03-06T01:31:26.178Z,80.34
2023-03-06T01:33:53.766Z,78.96
2023-03-06T01:36:22.077Z,79.08
2023-03-06T01:38:49.703Z,78.96
2023-03-06T01:41:21.166Z,79.04
2023-03-06T01:43:48.819Z,78.09
2023-03-06T01:46:39.045Z,78.86
2023-03-06T01:49:12.295Z,79.27
2023-03-06T01:51:45.080Z,78.90
2023-03-06T01:54:15.627Z,79.14
2023-03-06T01:56:47.878Z,79.42
2023-03-06T01:59:15.987Z,80.17
2023-03-06T02:01:45.403Z,81.22
2023-03-06T02:04:15.507Z,80.39
2023-03-06T02:06:44.507Z,80.63
2023-03-06T02:09:13.898Z,81.80
2023-03-06T02:11:44.440Z,81.22
2023-03-06T02:14:16.101Z,81.11
2023-03-06T02:16:45.824Z,80.86
2023-03-06T02:19:27.517Z,81.77
2023-03-06T02:21:55.517Z,82.03
2023-03-06T02:24:33.098Z,81.39
2023-03-06T02:27:05.155Z,82.04
2023-03-06T02:29:32.963Z,81.25
2023-03-06T02:32:03.986Z,81.13
2023-03-06T02:34:52.648Z,80.68
2023-03-06T02:37:22.157Z,79.65
2023-03-06T02:39:57.486Z,80.08
2023-03-06T02:42:29.719Z,80.07
2023-03-06T02:45:00.608Z,80.32
2023-03-06T02:47:28.592Z,80.68
2023-03-06T02:49:56.176Z,80.03
2023-03-06T02:52:24.179Z,80.77
2023-03-06T02:54:51.768Z,81.18
2023-03-06T02:57:20.424Z,80.80
2023-03-06T02:59:49.421Z,81.13
2023-03-06T03:02:17.296Z,80.58
2023-03-06T03:04:46.411Z,81.11
2023-03-06T03:07:14.369Z,81.91
2023-03-06T03:09:43.318Z,80.92
2023-03-06T03:12:11.839Z,81.88
2023-03-06T03:14:40.221Z,81.55
2023-03-06T03:17:09.175Z,81.67
2023-03-06T03:19:37.517Z,82.22
2023-03-06T03:22:07.703Z,82.33
2023-03-06T03:24:35.898Z,81.71
2023-03-06T03:27:04.159Z,81.42
2023-03-06T03:29:32.667Z,82.11
2023-03-06T03:32:00.758Z,81.83
2023-03-06T03:34:30.501Z,81.63
2023-03-06T03:36:58.515Z,81.55
2023-03-06T03:39:26.225Z,81.20
2023-03-06T03:41:53.925Z,81.80
2023-03-06T03:44:22.197Z,81.34
2023-03-06T03:46:50.063Z,80.39
2023-03-06T03:49:22.209Z,79.90
2023-03-06T03:51:52.689Z,80.02
2023-03-06T03:54:21.755Z,80.48
2023-03-06T03:56:51.063Z,78.83
2023-03-06T03:59:25.555Z,78.64
2023-03-06T04:02:05.402Z,77.84
2023-03-06T04:04:39.804Z,78.64
2023-03-06T04:07:10.240Z,78.02
2023-03-06T04:09:40.651Z,77.67
2023-03-06T04:12:09.743Z,76.80
2023-03-06T04:14:38.712Z,77.06
2023-03-06T04:17:06.897Z,79.81
2023-03-06T04:19:35.640Z,78.78
2023-03-06T04:22:03.277Z,79.25
2023-03-06T04:24:35.409Z,79.89
2023-03-06T04:27:03.536Z,80.29
2023-03-06T04:29:31.863Z,80.66
2023-03-06T04:31:59.583Z,80.50
2023-03-06T04:34:28.212Z,81.40
2023-03-06T04:36:56.375Z,80.88
2023-03-06T04:39:24.840Z,80.81
2023-03-06T04:41:53.781Z,81.27
2023-03-06T04:44:21.928Z,81.12
2023-03-06T04:46:49.538Z,81.10
2023-03-06T04:49:17.143Z,80.44
2023-03-06T04:51:44.728Z,81.05
2023-03-06T04:54:12.585Z,81.12
2023-03-06T04:56:40.358Z,81.93
2023-03-06T04:59:10.044Z,82.42
2023-03-06T05:01:37.739Z,82.91
2023-03-06T05:04:05.958Z,82.21
2023-03-06T05:06:33.701Z,82.08
2023-03-06T05:09:01.306Z,81.56
2023-03-06T05:11:29.245Z,82.17
2023-03-06T05:13:56.829Z,81.81
2023-03-06T05:16:25.899Z,81.57
2023-03-06T05:18:53.530Z,81.32
2023-03-06T05:21:21.468Z,81.99
2023-03-06T05:23:49.376Z,81.48
2023-03-06T05:26:17.204Z,81.35
2023-03-06T05:28:45.124Z,82.15
2023-03-06T05:31:13.205Z,82.47
2023-03-06T05:33:42.227Z,81.23
2023-03-06T05:36:11.061Z,79.86
2023-03-06T05:38:38.851Z,79.28
2023-03-06T05:41:06.867Z,79.29
2023-03-06T05:43:34.443Z,77.60
2023-03-06T05:46:03.393Z,77.22
2023-03-06T05:48:31.293Z,75.83
2023-03-06T05:51:01.828Z,76.56
2023-03-06T05:53:29.929Z,75.17
2023-03-06T05:55:59.091Z,75.26
2023-03-06T05:58:26.841Z,74.25
2023-03-06T06:00:54.904Z,74.78
2023-03-06T06:03:23.111Z,74.05
2023-03-06T06:05:52.004Z,74.63
2023-03-06T06:08:21.593Z,74.45
2023-03-06T06:10:52.194Z,73.88
2023-03-06T06:13:20.808Z,74.62
2023-03-06T06:15:49.341Z,74.71
2023-03-06T06:18:17.201Z,75.19
2023-03-06T06:20:45.578Z,75.52
2023-03-06T06:23:13.207Z,75.75
2023-03-06T06:25:43.030Z,77.92
2023-03-06T06:28:12.312Z,78.57
2023-03-06T06:30:40.325Z,78.43
2023-03-06T06:33:08.254Z,78.92
2023-03-06T06:35:37.834Z,78.77
2023-03-06T06:38:05.778Z,79.34
2023-03-06T06:40:33.426Z,79.21
2023-03-06T06:43:02.426Z,80.16
2023-03-06T06:45:30.074Z,80.02
2023-03-06T06:47:58.332Z,79.16
2023-03-06T06:50:26.370Z,78.76
2023-03-06T06:52:53.962Z,79.31
2023-03-06T06:55:21.631Z,78.62
2023-03-06T06:57:49.220Z,79.28
2023-03-06T07:00:19.850Z,78.29
2023-03-06T07:02:49.277Z,78.57
2023-03-06T07:05:17.253Z,79.89
2023-03-06T07:07:46.659Z,79.31
2023-03-06T07:10:17.190Z,78.82
2023-03-06T07:12:46.122Z,79.11
2023-03-06T07:15:16.105Z,78.51
2023-03-06T07:17:45.830Z,77.90
2023-03-06T07:20:14.292Z,77.01
2023-03-06T07:22:50.733Z,76.24
2023-03-06T07:25:19.795Z,76.95
2023-03-06T07:27:53.286Z,76.85
2023-03-06T07:30:22.774Z,75.69
2023-03-06T07:32:55.607Z,75.70
2023-03-06T07:35:24.269Z,76.30
2023-03-06T07:37:52.191Z,76.78
2023-03-06T07:40:21.713Z,75.78
2023-03-06T07:42:49.998Z,76.34
2023-03-06T07:45:25.456Z,76.21
2023-03-06T07:47:55.725Z,76.70
2023-03-06T07:50:23.649Z,76.83
2023-03-06T07:52:51.607Z,77.64
2023-03-06T07:55:19.364Z,77.96
2023-03-06T07:57:47.317Z,76.83
2023-03-06T08:00:16.928Z,77.14
2023-03-06T08:02:44.966Z,76.81
2023-03-06T08:05:17.722Z,75.54
2023-03-06T08:07:46.370Z,75.26
2023-03-06T08:10:15.944Z,74.96
2023-03-06T08:12:44.376Z,74.51
2023-03-06T08:15:13.722Z,75.51
2023-03-06T08:17:41.867Z,75.20
2023-03-06T08:20:11.277Z,74.98
2023-03-06T08:22:40.206Z,74.11
2023-03-06T08:25:09.304Z,74.38
2023-03-06T08:27:37.442Z,73.78
2023-03-06T08:30:06.129Z,74.20
2023-03-06T08:32:36.210Z,73.93
2023-03-06T08:35:04.760Z,73.71
2023-03-06T08:37:32.363Z,72.99
2023-03-06T08:40:02.958Z,73.64
2023-03-06T08:42:30.737Z,73.21
2023-03-06T08:44:58.753Z,72.13
2023-03-06T08:47:26.369Z,72.12
2023-03-06T08:49:54.294Z,72.48
2023-03-06T08:52:21.880Z,72.42
2023-03-06T08:54:49.528Z,72.76
2023-03-06T08:57:18.466Z,72.96
2023-03-06T08:59:46.440Z,72.72
2023-03-06T09:02:15.222Z,74.15
2023-03-06T09:04:43.597Z,72.87
2023-03-06T09:07:11.184Z,73.93
2023-03-06T09:09:39.443Z,74.04
2023-03-06T09:12:07.448Z,74.37
2023-03-06T09:14:36.564Z,73.41
2023-03-06T09:17:04.201Z,74.64
2023-03-06T09:19:32.560Z,74.37
2023-03-06T09:22:00.996Z,72.42
2023-03-06T09:24:29.358Z,73.46
2023-03-06T09:26:57.488Z,74.38
2023-03-06T09:29:25.415Z,73.79
2023-03-06T09:31:54.455Z,72.84
2023-03-06T09:34:22.085Z,72.17
2023-03-06T09:36:56.673Z,73.22
2023-03-06T09:39:26.288Z,72.73
2023-03-06T09:41:54.877Z,71.91
2023-03-06T09:44:26.053Z,72.01
2023-03-06T09:47:27.419Z,73.09
2023-03-06T09:50:08.920Z,72.75
2023-03-06T09:52:46.904Z,72.52
2023-03-06T09:55:19.419Z,71.34
2023-03-06T09:57:55.564Z,72.61
2023-03-06T10:00:27.888Z,72.52
2023-03-06T10:03:08.784Z,72.12
2023-03-06T10:05:42.572Z,71.17
2023-03-06T10:08:22.581Z,70.94
2023-03-06T10:10:54.892Z,70.95
2023-03-06T10:13:29.055Z,71.18
2023-03-06T10:16:05.924Z,72.01
2023-03-06T10:18:38.353Z,71.20
2023-03-06T10:21:19.692Z,71.04
2023-03-06T10:23:53.537Z,71.02
2023-03-06T10:26:25.644Z,71.45
2023-03-06T10:29:03.275Z,70.98
2023-03-06T10:31:31.246Z,70.16
2023-03-06T10:34:16.304Z,71.28
2023-03-06T10:36:44.777Z,71.04
2023-03-06T10:39:17.069Z,70.75
2023-03-06T10:41:46.275Z,70.80
2023-03-06T10:44:23.400Z,69.98
2023-03-06T10:46:54.044Z,70.70
2023-03-06T10:49:32.656Z,71.62
2023-03-06T10:52:05.364Z,71.10
2023-03-06T10:54:35.169Z,72.40
2023-03-06T10:57:21.074Z,72.32
2023-03-06T10:59:54.530Z,72.75
2023-03-06T11:02:27.648Z,70.75
2023-03-06T11:04:59.146Z,70.14
2023-03-06T11:07:28.429Z,70.36
2023-03-06T11:10:18.961Z,70.08
2023-03-06T11:12:58.549Z,70.17
2023-03-06T11:15:27.116Z,70.69
2023-03-06T11:17:58.816Z,69.66
2023-03-06T11:20:44.880Z,70.57
2023-03-06T11:23:20.432Z,70.19
2023-03-06T11:25:51.312Z,69.26
2023-03-06T11:28:23.735Z,69.58
2023-03-06T11:30:55.504Z,70.30
2023-03-06T11:33:29.854Z,69.98
2023-03-06T11:36:03.497Z,69.74
2023-03-06T11:38:39.835Z,71.33
2023-03-06T11:41:19.388Z,68.85
2023-03-06T11:43:55.775Z,70.07
2023-03-06T11:46:28.725Z,69.00
2023-03-06T11:49:02.347Z,68.64
2023-03-06T11:51:36.279Z,67.86
2023-03-06T11:54:04.031Z,69.35
2023-03-06T11:56:36.597Z,66.82
2023-03-06T11:59:26.709Z,68.74
2023-03-06T12:02:02.791Z,68.36
2023-03-06T12:04:46.748Z,66.93
2023-03-06T12:07:23.589Z,67.81
2023-03-06T12:09:57.752Z,64.93
2023-03-06T12:12:56.028Z,66.62
2023-03-06T12:15:36.562Z,68.03
2023-03-06T12:18:20.718Z,67.44
2023-03-06T12:20:56.329Z,66.94
2023-03-06T12:23:41.746Z,67.18
2023-03-06T12:26:26.820Z,65.72
2023-03-06T12:29:13.275Z,65.87
2023-03-06T12:31:50.285Z,66.95
2023-03-06T12:34:38.890Z,65.94
2023-03-06T12:37:18.248Z,64.05
2023-03-06T12:40:09.885Z,65.71
2023-03-06T12:43:02.221Z,63.72
2023-03-06T12:45:33.236Z,64.83
2023-03-06T12:48:02.827Z,65.79
2023-03-06T12:50:32.163Z,66.28
2023-03-06T12:53:03.294Z,63.81
2023-03-06T12:55:40.512Z,64.47
2023-03-06T12:58:36.623Z,64.89
2023-03-06T13:01:10.064Z,65.98
2023-03-06T13:03:55.448Z,65.56
2023-03-06T13:06:39.234Z,65.77
2023-03-06T13:09:19.612Z,65.80
2023-03-06T13:12:17.636Z,65.87
2023-03-06T13:14:55.215Z,65.99
2023-03-06T13:17:29.679Z,65.55
2023-03-06T13:20:43.325Z,65.88
2023-03-06T13:23:50.788Z,65.24
2023-03-06T13:26:50.703Z,64.61
2023-03-06T13:29:59.968Z,66.40
2023-03-06T13:32:35.498Z,66.78
2023-03-06T13:35:03.916Z,65.07
2023-03-06T13:37:51.545Z,66.40
2023-03-06T13:40:31.718Z,66.17
2023-03-06T13:43:30.473Z,65.76
2023-03-06T13:46:19.277Z,65.57
2023-03-06T13:49:05.620Z,65.46
2023-03-06T13:51:36.302Z,65.88
2023-03-06T13:54:22.610Z,65.84
2023-03-06T13:57:24.113Z,63.88
2023-03-06T14:00:10.306Z,63.67
2023-03-06T14:03:21.131Z,65.41
2023-03-06T14:05:51.527Z,64.06
2023-03-06T14:08:21.963Z,62.90
2023-03-06T14:11:01.554Z,64.38
2023-03-06T14:13:46.623Z,63.82
2023-03-06T14:16:20.286Z,64.50
2023-03-06T14:18:50.378Z,63.84
2023-03-06T14:21:30.712Z,65.38
2023-03-06T14:24:00.906Z,65.43
2023-03-06T14:26:33.553Z,62.74
2023-03-06T14:29:03.550Z,63.62
2023-03-06T14:31:33.356Z,66.33
2023-03-06T14:34:03.651Z,62.86
2023-03-06T14:36:36.807Z,64.08
2023-03-06T14:39:11.864Z,64.20
2023-03-06T14:41:39.875Z,62.92
2023-03-06T14:44:17.989Z,62.17
2023-03-06T14:46:46.754Z,64.21
2023-03-06T14:49:15.784Z,62.89
2023-03-06T14:51:46.951Z,62.80
2023-03-06T14:54:19.790Z,62.58
2023-03-06T14:56:49.945Z,64.17
2023-03-06T14:59:21.594Z,63.73
2023-03-06T15:01:51.838Z,62.79
2023-03-06T15:04:27.250Z,62.29
2023-03-06T15:06:58.083Z,63.68
2023-03-06T15:09:29.010Z,63.11
2023-03-06T15:11:59.429Z,63.78
2023-03-06T15:14:34.040Z,62.94
2023-03-06T15:17:23.770Z,62.48
2023-03-06T15:19:54.196Z,62.50
2023-03-06T15:22:28.544Z,63.54
2023-03-06T15:25:15.506Z,62.71
2023-03-06T15:27:50.072Z,62.18
2023-03-06T15:30:31.434Z,62.48
2023-03-06T15:33:25.224Z,63.27
2023-03-06T15:35:55.248Z,61.37
2023-03-06T15:38:33.818Z,62.82
2023-03-06T15:41:05.297Z,62.86
2023-03-06T15:43:36.139Z,62.23
2023-03-06T15:46:07.426Z,62.11
2023-03-06T15:48:35.308Z,61.49
2023-03-06T15:51:03.815Z,61.23
2023-03-06T15:53:32.816Z,62.26
2023-03-06T15:56:00.626Z,62.08
2023-03-06T15:58:31.022Z,62.40
2023-03-06T16:00:59.080Z,60.34
2023-03-06T16:03:26.674Z,62.40
2023-03-06T16:05:54.671Z,62.15
2023-03-06T16:08:22.322Z,62.16
2023-03-06T16:10:52.487Z,62.29
2023-03-06T16:13:25.713Z,62.78
2023-03-06T16:15:54.314Z,61.58
2023-03-06T16:18:22.457Z,61.01
2023-03-06T16:20:51.162Z,62.05
2023-03-06T16:23:18.762Z,62.36
2023-03-06T16:25:49.978Z,62.60
2023-03-06T16:28:18.928Z,62.62
2023-03-06T16:30:46.780Z,62.73
2023-03-06T16:33:14.604Z,62.37
2023-03-06T16:35:44.562Z,61.54
2023-03-06T16:38:12.213Z,61.88
2023-03-06T16:40:41.354Z,62.56
2023-03-06T16:43:10.422Z,62.34
2023-03-06T16:45:41.594Z,61.06
2023-03-06T16:48:15.733Z,63.18
2023-03-06T16:50:43.876Z,62.86
2023-03-06T16:53:11.510Z,62.34
2023-03-06T16:55:39.320Z,62.31
2023-03-06T16:58:08.561Z,63.16
2023-03-06T17:00:36.337Z,62.37
2023-03-06T17:03:05.500Z,62.27
2023-03-06T17:05:34.998Z,61.88
2023-03-06T17:08:03.065Z,62.71
2023-03-06T17:10:30.638Z,62.90
2023-03-06T17:12:58.687Z,62.75
2023-03-06T17:15:26.284Z,62.73
2023-03-06T17:17:54.679Z,63.48
2023-03-06T17:20:23.832Z,64.50
2023-03-06T17:22:51.826Z,64.68
2023-03-06T17:25:19.654Z,64.11
2023-03-06T17:27:47.750Z,65.91
2023-03-06T17:30:15.979Z,65.52
2023-03-06T17:32:43.940Z,65.61
2023-03-06T17:35:11.557Z,65.30
2023-03-06T17:37:40.556Z,65.59
2023-03-06T17:40:10.487Z,65.75
2023-03-06T17:42:38.094Z,65.58
2023-03-06T17:45:09.117Z,66.42
2023-03-06T17:47:37.134Z,67.46
2023-03-06T17:50:05.541Z,67.38
2023-03-06T17:52:33.425Z,67.81
2023-03-06T17:55:02.388Z,68.00
2023-03-06T17:57:30.513Z,68.29
2023-03-06T17:59:58.305Z,67.93
2023-03-06T18:02:26.291Z,67.81
2023-03-06T18:04:56.737Z,67.46
2023-03-06T18:07:24.770Z,68.87
2023-03-06T18:09:52.350Z,68.79
2023-03-06T18:12:21.613Z,68.95
2023-03-06T18:14:50.638Z,68.99
2023-03-06T18:17:18.410Z,69.74
2023-03-06T18:19:46.456Z,69.64
2023-03-06T18:22:14.085Z,69.97
2023-03-06T18:24:41.718Z,69.87
2023-03-06T18:27:09.694Z,69.12
2023-03-06T18:29:38.681Z,68.92
2023-03-06T18:32:07.104Z,68.73
2023-03-06T18:34:35.098Z,69.16
2023-03-06T18:37:03.037Z,69.36
2023-03-06T18:39:30.660Z,69.21
2023-03-06T18:41:58.236Z,68.76
2023-03-06T18:44:25.954Z,68.43
2023-03-06T18:46:54.893Z,67.99
2023-03-06T18:49:23.057Z,68.38
2023-03-06T18:51:50.886Z,68.18
2023-03-06T18:54:18.987Z,68.93
2023-03-06T18:56:46.589Z,70.25
2023-03-06T18:59:18.638Z,70.17
2023-03-06T19:01:48.118Z,69.71
2023-03-06T19:04:17.604Z,68.90
2023-03-06T19:06:45.199Z,69.43
2023-03-06T19:09:12.997Z,69.11
2023-03-06T19:11:40.689Z,68.85
2023-03-06T19:14:08.615Z,68.76
2023-03-06T19:16:36.610Z,68.29
2023-03-06T19:19:04.574Z,68.69
2023-03-06T19:21:33.718Z,68.89
2023-03-06T19:24:03.110Z,69.15
2023-03-06T19:26:30.730Z,69.20
2023-03-06T19:28:58.697Z,70.02
2023-03-06T19:31:28.412Z,69.74
2023-03-06T19:33:57.639Z,69.63
2023-03-06T19:36:27.587Z,69.38
2023-03-06T19:38:58.282Z,70.22
2023-03-06T19:41:26.433Z,72.07
2023-03-06T19:43:55.860Z,71.91
2023-03-06T19:46:24.486Z,71.96
2023-03-06T19:48:55.993Z,71.36
2023-03-06T19:51:23.926Z,71.28
2023-03-06T19:53:51.577Z,71.15
2023-03-06T19:56:23.045Z,70.62
2023-03-06T19:58:50.695Z,70.90
2023-03-06T20:01:20.442Z,70.60
2023-03-06T20:03:50.500Z,71.27
2023-03-06T20:06:20.635Z,70.71
2023-03-06T20:08:49.013Z,69.60
2023-03-06T20:11:18.073Z,69.41
2023-03-06T20:13:47.758Z,69.04
2023-03-06T20:16:15.626Z,69.05
2023-03-06T20:18:43.440Z,69.07
2023-03-06T20:21:11.760Z,68.36
2023-03-06T20:23:39.388Z,68.91
2023-03-06T20:26:09.963Z,68.70
2023-03-06T20:28:39.237Z,67.38
2023-03-06T20:31:09.790Z,67.45
2023-03-06T20:33:37.842Z,67.20
2023-03-06T20:36:12.138Z,67.57
2023-03-06T20:38:40.046Z,67.95
2023-03-06T20:41:08.841Z,68.00
2023-03-06T20:43:36.511Z,68.60
2023-03-06T20:46:05.956Z,69.78
2023-03-06T20:48:35.088Z,69.90
2023-03-06T20:51:04.897Z,70.68
2023-03-06T20:53:32.797Z,70.22
2023-03-06T20:56:00.681Z,69.45
2023-03-06T20:58:30.099Z,69.52
2023-03-06T21:01:00.312Z,69.51
2023-03-06T21:03:29.206Z,69.46
2023-03-06T21:05:58.350Z,69.44
2023-03-06T21:08:25.938Z,69.24
2023-03-06T21:10:53.878Z,68.74
2023-03-06T21:13:21.758Z,68.49
2023-03-06T21:15:49.973Z,68.52
2023-03-06T21:18:17.712Z,68.36
2023-03-06T21:20:45.598Z,67.23
2023-03-06T21:23:14.945Z,66.72
2023-03-06T21:25:48.784Z,67.16
2023-03-06T21:28:16.497Z,68.14
2023-03-06T21:30:44.494Z,68.77
2023-03-06T21:33:12.837Z,67.76
2023-03-06T21:35:41.583Z,68.29
2023-03-06T21:38:09.230Z,69.06
2023-03-06T21:40:38.505Z,70.00
2023-03-06T21:43:06.328Z,69.92
2023-03-06T21:45:34.036Z,69.64
2023-03-06T21:48:01.806Z,69.43
2023-03-06T21:50:29.741Z,69.97
2023-03-06T21:52:57.786Z,69.81
2023-03-06T21:55:25.392Z,70.14
2023-03-06T21:57:56.300Z,70.06
2023-03-06T22:00:25.691Z,69.93
2023-03-06T22:02:53.970Z,70.78
2023-03-06T22:05:21.598Z,70.13
2023-03-06T22:07:49.420Z,70.64
2023-03-06T22:10:17.146Z,70.31
2023-03-06T22:12:46.085Z,70.12
2023-03-06T22:15:15.017Z,69.59
2023-03-06T22:17:42.770Z,69.29
2023-03-06T22:20:13.034Z,69.09
2023-03-06T22:22:41.136Z,69.38
2023-03-06T22:25:10.183Z,69.88
2023-03-06T22:27:38.634Z,69.56
2023-03-06T22:30:08.182Z,70.34
2023-03-06T22:32:37.665Z,70.34
2023-03-06T22:35:06.076Z,69.33
2023-03-06T22:37:33.684Z,69.64
2023-03-06T22:40:01.574Z,68.85
2023-03-06T22:42:29.825Z,69.61
2023-03-06T22:44:57.409Z,68.59
2023-03-06T22:47:25.192Z,69.49
2023-03-06T22:49:54.104Z,69.90
2023-03-06T22:52:21.719Z,70.25
2023-03-06T22:54:49.312Z,70.30
2023-03-06T22:57:17.473Z,71.18
2023-03-06T22:59:45.078Z,71.65
2023-03-06T23:02:13.693Z,71.45
2023-03-06T23:04:41.336Z,71.81
2023-03-06T23:07:10.953Z,71.39
2023-03-06T23:09:38.633Z,71.10
2023-03-06T23:12:25.580Z,71.35
2023-03-06T23:15:12.916Z,72.04
2023-03-06T23:17:59.395Z,72.83
2023-03-06T23:20:46.043Z,72.38
2023-03-06T23:23:34.364Z,71.24
2023-03-06T23:26:02.290Z,71.11
2023-03-06T23:28:31.375Z,71.01
2023-03-06T23:30:59.000Z,70.88
2023-03-06T23:33:27.094Z,71.23
2023-03-06T23:35:54.800Z,70.18
2023-03-06T23:38:23.283Z,70.69
2023-03-06T23:40:52.236Z,70.64
2023-03-06T23:43:19.860Z,70.26
2023-03-06T23:45:53.556Z,70.90
2023-03-06T23:48:22.067Z,70.12
2023-03-06T23:50:49.685Z,69.75
2023-03-06T23:53:18.215Z,69.87
2023-03-06T23:55:47.440Z,70.00
2023-03-06T23:58:18.029Z,69.83
